sensor_id;sensor_type;location;lat;lon;timestamp;temperature;humidity
77829;DHT22;67019;51.034;3.728;2023-07-31T00:00:51;16.40;99.90
77829;DHT22;67019;51.034;3.728;2023-07-31T00:03:19;16.40;99.90
77829;DHT22;67019;51.034;3.728;2023-07-31T00:05:46;16.40;99.90
77829;DHT22;67019;51.034;3.728;2023-07-31T00:08:14;16.40;99.90
77829;DHT22;67019;51.034;3.728;2023-07-31T00:10:41;16.40;99.90
77829;DHT22;67019;51.034;3.728;2023-07-31T00:13:09;16.40;99.90
77829;DHT22;67019;51.034;3.728;2023-07-31T00:15:37;16.50;99.90
77829;DHT22;67019;51.034;3.728;2023-07-31T00:18:04;16.50;99.90
77829;DHT22;67019;51.034;3.728;2023-07-31T00:20:32;16.50;99.90
77829;DHT22;67019;51.034;3.728;2023-07-31T00:23:00;16.50;99.90
77829;DHT22;67019;51.034;3.728;2023-07-31T00:25:27;16.50;99.90
77829;DHT22;67019;51.034;3.728;2023-07-31T00:27:55;16.50;99.90
77829;DHT22;67019;51.034;3.728;2023-07-31T00:30:22;16.50;99.90
77829;DHT22;67019;51.034;3.728;2023-07-31T00:32:51;16.50;99.90
77829;DHT22;67019;51.034;3.728;2023-07-31T00:35:19;16.50;99.90
77829;DHT22;67019;51.034;3.728;2023-07-31T00:37:46;16.50;99.90
77829;DHT22;67019;51.034;3.728;2023-07-31T00:40:14;16.50;99.90
77829;DHT22;67019;51.034;3.728;2023-07-31T00:42:42;16.50;99.90
77829;DHT22;67019;51.034;3.728;2023-07-31T00:45:09;16.50;99.90
77829;DHT22;67019;51.034;3.728;2023-07-31T00:47:37;16.60;99.90
77829;DHT22;67019;51.034;3.728;2023-07-31T00:50:05;16.60;99.90
77829;DHT22;67019;51.034;3.728;2023-07-31T00:52:33;16.60;99.90
77829;DHT22;67019;51.034;3.728;2023-07-31T00:55:00;16.60;99.90
77829;DHT22;67019;51.034;3.728;2023-07-31T00:57:28;16.60;99.90
77829;DHT22;67019;51.034;3.728;2023-07-31T00:59:56;16.60;99.90
77829;DHT22;67019;51.034;3.728;2023-07-31T01:02:23;16.60;99.90
77829;DHT22;67019;51.034;3.728;2023-07-31T01:04:52;16.70;99.90
77829;DHT22;67019;51.034;3.728;2023-07-31T01:07:30;16.60;99.90
77829;DHT22;67019;51.034;3.728;2023-07-31T01:10:07;16.60;99.90
77829;DHT22;67019;51.034;3.728;2023-07-31T01:12:31;16.60;99.90
77829;DHT22;67019;51.034;3.728;2023-07-31T01:15:09;16.60;99.90
77829;DHT22;67019;51.034;3.728;2023-07-31T01:17:42;16.70;99.90
77829;DHT22;67019;51.034;3.728;2023-07-31T01:20:18;16.60;99.90
77829;DHT22;67019;51.034;3.728;2023-07-31T01:28:27;16.70;99.90
77829;DHT22;67019;51.034;3.728;2023-07-31T01:30:55;16.70;99.90
77829;DHT22;67019;51.034;3.728;2023-07-31T01:33:24;16.60;99.90
77829;DHT22;67019;51.034;3.728;2023-07-31T01:35:53;16.60;99.90
77829;DHT22;67019;51.034;3.728;2023-07-31T01:38:21;16.70;99.90
77829;DHT22;67019;51.034;3.728;2023-07-31T01:40:53;16.70;99.90
77829;DHT22;67019;51.034;3.728;2023-07-31T01:43:21;16.70;99.90
77829;DHT22;67019;51.034;3.728;2023-07-31T01:45:48;16.70;99.90
77829;DHT22;67019;51.034;3.728;2023-07-31T01:48:20;16.70;99.90
77829;DHT22;67019;51.034;3.728;2023-07-31T01:50:45;16.70;99.90
77829;DHT22;67019;51.034;3.728;2023-07-31T01:53:12;16.70;99.90
77829;DHT22;67019;51.034;3.728;2023-07-31T01:55:40;16.70;99.90
77829;DHT22;67019;51.034;3.728;2023-07-31T01:58:07;16.60;99.90
77829;DHT22;67019;51.034;3.728;2023-07-31T02:00:35;16.70;99.90
77829;DHT22;67019;51.034;3.728;2023-07-31T02:03:03;16.70;99.90
77829;DHT22;67019;51.034;3.728;2023-07-31T02:05:30;16.70;99.90
77829;DHT22;67019;51.034;3.728;2023-07-31T02:07:58;16.70;99.90
77829;DHT22;67019;51.034;3.728;2023-07-31T02:10:26;16.70;99.90
77829;DHT22;67019;51.034;3.728;2023-07-31T02:12:53;16.70;99.90
77829;DHT22;67019;51.034;3.728;2023-07-31T02:15:21;16.70;99.90
77829;DHT22;67019;51.034;3.728;2023-07-31T02:17:48;16.70;99.90
77829;DHT22;67019;51.034;3.728;2023-07-31T02:20:16;16.70;99.90
77829;DHT22;67019;51.034;3.728;2023-07-31T02:22:43;16.70;99.90
77829;DHT22;67019;51.034;3.728;2023-07-31T02:25:11;16.70;99.90
77829;DHT22;67019;51.034;3.728;2023-07-31T02:27:39;16.70;99.90
77829;DHT22;67019;51.034;3.728;2023-07-31T02:30:07;16.70;99.90
77829;DHT22;67019;51.034;3.728;2023-07-31T02:32:34;16.80;99.90
77829;DHT22;67019;51.034;3.728;2023-07-31T02:35:02;16.70;99.90
77829;DHT22;67019;51.034;3.728;2023-07-31T02:37:30;16.70;99.90
77829;DHT22;67019;51.034;3.728;2023-07-31T02:39:57;16.70;99.90
77829;DHT22;67019;51.034;3.728;2023-07-31T02:42:25;16.80;99.90
77829;DHT22;67019;51.034;3.728;2023-07-31T02:44:53;16.80;99.90
77829;DHT22;67019;51.034;3.728;2023-07-31T02:47:22;16.80;99.90
77829;DHT22;67019;51.034;3.728;2023-07-31T02:49:50;16.70;99.90
77829;DHT22;67019;51.034;3.728;2023-07-31T02:52:17;16.70;99.90
77829;DHT22;67019;51.034;3.728;2023-07-31T02:54:46;16.80;99.90
77829;DHT22;67019;51.034;3.728;2023-07-31T02:57:13;16.70;99.90
77829;DHT22;67019;51.034;3.728;2023-07-31T02:59:42;16.60;99.90
77829;DHT22;67019;51.034;3.728;2023-07-31T03:02:10;16.60;99.90
77829;DHT22;67019;51.034;3.728;2023-07-31T03:04:39;16.60;99.90
77829;DHT22;67019;51.034;3.728;2023-07-31T03:07:07;16.60;99.90
77829;DHT22;67019;51.034;3.728;2023-07-31T03:09:34;16.60;99.90
77829;DHT22;67019;51.034;3.728;2023-07-31T03:12:02;16.70;99.90
77829;DHT22;67019;51.034;3.728;2023-07-31T03:14:30;16.60;99.90
77829;DHT22;67019;51.034;3.728;2023-07-31T03:16:57;16.50;99.90
77829;DHT22;67019;51.034;3.728;2023-07-31T03:19:25;16.50;99.90
77829;DHT22;67019;51.034;3.728;2023-07-31T03:21:57;16.60;99.90
77829;DHT22;67019;51.034;3.728;2023-07-31T03:24:22;16.50;99.90
77829;DHT22;67019;51.034;3.728;2023-07-31T03:26:49;16.30;99.90
77829;DHT22;67019;51.034;3.728;2023-07-31T03:29:17;16.40;99.90
77829;DHT22;67019;51.034;3.728;2023-07-31T03:31:44;16.20;99.90
77829;DHT22;67019;51.034;3.728;2023-07-31T03:34:12;16.20;99.90
77829;DHT22;67019;51.034;3.728;2023-07-31T03:36:40;16.10;99.90
77829;DHT22;67019;51.034;3.728;2023-07-31T03:39:07;16.00;99.90
77829;DHT22;67019;51.034;3.728;2023-07-31T03:41:35;16.10;99.90
77829;DHT22;67019;51.034;3.728;2023-07-31T03:44:02;15.90;99.90
77829;DHT22;67019;51.034;3.728;2023-07-31T03:46:30;15.90;99.90
77829;DHT22;67019;51.034;3.728;2023-07-31T03:48:58;15.90;99.90
77829;DHT22;67019;51.034;3.728;2023-07-31T03:51:26;15.50;99.90
77829;DHT22;67019;51.034;3.728;2023-07-31T03:53:54;15.90;99.90
77829;DHT22;67019;51.034;3.728;2023-07-31T03:56:21;15.90;99.90
77829;DHT22;67019;51.034;3.728;2023-07-31T03:58:49;15.90;99.90
77829;DHT22;67019;51.034;3.728;2023-07-31T04:01:16;15.80;99.90
77829;DHT22;67019;51.034;3.728;2023-07-31T04:03:46;15.80;99.90
77829;DHT22;67019;51.034;3.728;2023-07-31T04:06:13;15.90;99.90
77829;DHT22;67019;51.034;3.728;2023-07-31T04:08:42;15.90;99.90
77829;DHT22;67019;51.034;3.728;2023-07-31T04:11:11;15.90;99.90
77829;DHT22;67019;51.034;3.728;2023-07-31T04:13:39;15.90;99.90
77829;DHT22;67019;51.034;3.728;2023-07-31T04:16:06;16.00;99.90
77829;DHT22;67019;51.034;3.728;2023-07-31T04:18:34;16.00;99.90
77829;DHT22;67019;51.034;3.728;2023-07-31T04:21:01;16.00;99.90
77829;DHT22;67019;51.034;3.728;2023-07-31T04:23:29;16.10;99.90
77829;DHT22;67019;51.034;3.728;2023-07-31T04:25:57;16.00;99.90
77829;DHT22;67019;51.034;3.728;2023-07-31T04:28:24;16.00;99.90
77829;DHT22;67019;51.034;3.728;2023-07-31T04:30:52;16.00;99.90
77829;DHT22;67019;51.034;3.728;2023-07-31T04:33:20;15.90;99.90
77829;DHT22;67019;51.034;3.728;2023-07-31T04:35:52;15.90;99.90
77829;DHT22;67019;51.034;3.728;2023-07-31T04:38:20;15.90;99.90
77829;DHT22;67019;51.034;3.728;2023-07-31T04:40:48;15.90;99.90
77829;DHT22;67019;51.034;3.728;2023-07-31T04:43:16;15.90;99.90
77829;DHT22;67019;51.034;3.728;2023-07-31T04:45:45;15.80;99.90
77829;DHT22;67019;51.034;3.728;2023-07-31T04:48:14;15.90;99.90
77829;DHT22;67019;51.034;3.728;2023-07-31T04:50:42;15.90;99.90
77829;DHT22;67019;51.034;3.728;2023-07-31T04:53:09;16.00;99.90
77829;DHT22;67019;51.034;3.728;2023-07-31T04:55:37;15.90;99.90
77829;DHT22;67019;51.034;3.728;2023-07-31T04:58:05;15.90;99.90
77829;DHT22;67019;51.034;3.728;2023-07-31T05:00:33;15.90;99.90
77829;DHT22;67019;51.034;3.728;2023-07-31T05:03:00;15.90;99.90
77829;DHT22;67019;51.034;3.728;2023-07-31T05:05:28;15.90;99.90
77829;DHT22;67019;51.034;3.728;2023-07-31T05:07:56;15.90;99.90
77829;DHT22;67019;51.034;3.728;2023-07-31T05:10:24;15.90;99.90
77829;DHT22;67019;51.034;3.728;2023-07-31T05:12:53;15.90;99.90
77829;DHT22;67019;51.034;3.728;2023-07-31T05:15:20;15.90;99.90
77829;DHT22;67019;51.034;3.728;2023-07-31T05:17:48;16.00;99.90
77829;DHT22;67019;51.034;3.728;2023-07-31T05:20:16;16.10;99.90
77829;DHT22;67019;51.034;3.728;2023-07-31T05:22:43;16.10;99.90
77829;DHT22;67019;51.034;3.728;2023-07-31T05:25:11;16.10;99.90
77829;DHT22;67019;51.034;3.728;2023-07-31T05:27:39;16.10;99.90
77829;DHT22;67019;51.034;3.728;2023-07-31T05:30:07;16.10;99.90
77829;DHT22;67019;51.034;3.728;2023-07-31T05:32:35;16.10;99.90
77829;DHT22;67019;51.034;3.728;2023-07-31T05:35:03;16.10;99.90
77829;DHT22;67019;51.034;3.728;2023-07-31T05:37:30;16.10;99.90
77829;DHT22;67019;51.034;3.728;2023-07-31T05:39:58;16.10;99.90
77829;DHT22;67019;51.034;3.728;2023-07-31T05:42:25;16.10;99.90
77829;DHT22;67019;51.034;3.728;2023-07-31T05:44:53;16.10;99.90
77829;DHT22;67019;51.034;3.728;2023-07-31T05:47:21;16.10;99.90
77829;DHT22;67019;51.034;3.728;2023-07-31T05:49:49;16.10;99.90
77829;DHT22;67019;51.034;3.728;2023-07-31T05:52:18;16.10;99.90
77829;DHT22;67019;51.034;3.728;2023-07-31T05:54:46;16.20;99.90
77829;DHT22;67019;51.034;3.728;2023-07-31T05:57:13;16.20;99.90
77829;DHT22;67019;51.034;3.728;2023-07-31T05:59:41;16.20;99.90
77829;DHT22;67019;51.034;3.728;2023-07-31T06:02:09;16.20;99.90
77829;DHT22;67019;51.034;3.728;2023-07-31T06:04:36;16.20;99.90
77829;DHT22;67019;51.034;3.728;2023-07-31T06:07:04;16.20;99.90
77829;DHT22;67019;51.034;3.728;2023-07-31T06:09:32;16.30;99.90
77829;DHT22;67019;51.034;3.728;2023-07-31T06:11:59;16.30;99.90
77829;DHT22;67019;51.034;3.728;2023-07-31T06:14:27;16.30;99.90
77829;DHT22;67019;51.034;3.728;2023-07-31T06:16:54;16.30;99.90
77829;DHT22;67019;51.034;3.728;2023-07-31T06:19:22;16.30;99.90
77829;DHT22;67019;51.034;3.728;2023-07-31T06:21:50;16.40;99.90
77829;DHT22;67019;51.034;3.728;2023-07-31T06:24:19;16.30;99.90
77829;DHT22;67019;51.034;3.728;2023-07-31T06:26:47;16.40;99.90
77829;DHT22;67019;51.034;3.728;2023-07-31T06:29:14;16.50;99.90
77829;DHT22;67019;51.034;3.728;2023-07-31T06:31:42;16.50;99.90
77829;DHT22;67019;51.034;3.728;2023-07-31T06:34:10;16.60;99.90
77829;DHT22;67019;51.034;3.728;2023-07-31T06:36:37;16.70;99.90
77829;DHT22;67019;51.034;3.728;2023-07-31T06:39:05;16.70;99.90
77829;DHT22;67019;51.034;3.728;2023-07-31T06:41:33;16.70;99.90
77829;DHT22;67019;51.034;3.728;2023-07-31T06:44:00;16.60;99.90
77829;DHT22;67019;51.034;3.728;2023-07-31T06:46:29;16.60;99.90
77829;DHT22;67019;51.034;3.728;2023-07-31T06:48:57;16.70;99.90
77829;DHT22;67019;51.034;3.728;2023-07-31T06:51:25;16.70;99.90
77829;DHT22;67019;51.034;3.728;2023-07-31T06:53:52;16.60;99.90
77829;DHT22;67019;51.034;3.728;2023-07-31T06:56:21;16.60;99.90
77829;DHT22;67019;51.034;3.728;2023-07-31T06:58:49;16.50;99.90
77829;DHT22;67019;51.034;3.728;2023-07-31T07:01:16;16.60;99.90
77829;DHT22;67019;51.034;3.728;2023-07-31T07:03:44;16.70;99.90
77829;DHT22;67019;51.034;3.728;2023-07-31T07:06:12;16.70;99.90
77829;DHT22;67019;51.034;3.728;2023-07-31T07:08:39;16.60;99.90
77829;DHT22;67019;51.034;3.728;2023-07-31T07:11:07;16.60;99.90
77829;DHT22;67019;51.034;3.728;2023-07-31T07:13:35;16.70;99.90
77829;DHT22;67019;51.034;3.728;2023-07-31T07:16:02;16.70;99.90
77829;DHT22;67019;51.034;3.728;2023-07-31T07:18:30;16.80;99.90
77829;DHT22;67019;51.034;3.728;2023-07-31T07:20:58;16.90;99.90
77829;DHT22;67019;51.034;3.728;2023-07-31T07:23:29;16.90;99.90
77829;DHT22;67019;51.034;3.728;2023-07-31T07:25:56;17.00;99.90
77829;DHT22;67019;51.034;3.728;2023-07-31T07:28:24;17.20;99.90
77829;DHT22;67019;51.034;3.728;2023-07-31T07:30:52;17.30;99.90
77829;DHT22;67019;51.034;3.728;2023-07-31T07:33:22;17.20;99.90
77829;DHT22;67019;51.034;3.728;2023-07-31T07:35:50;17.30;99.90
77829;DHT22;67019;51.034;3.728;2023-07-31T07:38:17;17.00;99.90
77829;DHT22;67019;51.034;3.728;2023-07-31T07:40:45;16.90;99.90
77829;DHT22;67019;51.034;3.728;2023-07-31T07:43:15;17.00;99.90
77829;DHT22;67019;51.034;3.728;2023-07-31T07:45:42;16.90;99.90
77829;DHT22;67019;51.034;3.728;2023-07-31T07:48:10;16.90;99.90
77829;DHT22;67019;51.034;3.728;2023-07-31T07:50:38;17.00;99.90
77829;DHT22;67019;51.034;3.728;2023-07-31T07:53:07;16.90;99.90
77829;DHT22;67019;51.034;3.728;2023-07-31T07:55:36;16.90;99.90
77829;DHT22;67019;51.034;3.728;2023-07-31T07:58:05;17.00;99.90
77829;DHT22;67019;51.034;3.728;2023-07-31T08:00:32;17.00;99.90
77829;DHT22;67019;51.034;3.728;2023-07-31T08:03:01;17.10;99.90
77829;DHT22;67019;51.034;3.728;2023-07-31T08:05:29;17.30;99.90
77829;DHT22;67019;51.034;3.728;2023-07-31T08:07:58;17.20;99.90
77829;DHT22;67019;51.034;3.728;2023-07-31T08:10:26;17.30;99.90
77829;DHT22;67019;51.034;3.728;2023-07-31T08:12:53;17.30;99.90
77829;DHT22;67019;51.034;3.728;2023-07-31T08:15:21;17.40;99.90
77829;DHT22;67019;51.034;3.728;2023-07-31T08:17:49;17.50;99.90
77829;DHT22;67019;51.034;3.728;2023-07-31T08:20:16;17.70;99.90
77829;DHT22;67019;51.034;3.728;2023-07-31T08:22:44;17.70;99.90
77829;DHT22;67019;51.034;3.728;2023-07-31T08:25:12;17.70;99.90
77829;DHT22;67019;51.034;3.728;2023-07-31T08:27:43;17.70;99.90
77829;DHT22;67019;51.034;3.728;2023-07-31T08:30:12;17.70;99.90
77829;DHT22;67019;51.034;3.728;2023-07-31T08:32:40;17.60;99.90
77829;DHT22;67019;51.034;3.728;2023-07-31T08:35:07;17.60;99.90
77829;DHT22;67019;51.034;3.728;2023-07-31T08:37:35;17.60;99.90
77829;DHT22;67019;51.034;3.728;2023-07-31T08:40:03;17.80;99.90
77829;DHT22;67019;51.034;3.728;2023-07-31T08:42:31;17.80;99.90
77829;DHT22;67019;51.034;3.728;2023-07-31T08:45:00;18.10;99.90
77829;DHT22;67019;51.034;3.728;2023-07-31T08:47:29;18.30;99.90
77829;DHT22;67019;51.034;3.728;2023-07-31T08:49:57;18.40;99.90
77829;DHT22;67019;51.034;3.728;2023-07-31T08:52:26;18.20;99.90
77829;DHT22;67019;51.034;3.728;2023-07-31T08:54:53;18.30;99.90
77829;DHT22;67019;51.034;3.728;2023-07-31T08:57:21;18.40;99.90
77829;DHT22;67019;51.034;3.728;2023-07-31T08:59:51;18.40;99.90
77829;DHT22;67019;51.034;3.728;2023-07-31T09:02:19;18.20;99.90
77829;DHT22;67019;51.034;3.728;2023-07-31T09:04:49;18.20;99.90
77829;DHT22;67019;51.034;3.728;2023-07-31T09:07:17;18.10;99.90
77829;DHT22;67019;51.034;3.728;2023-07-31T09:09:46;18.20;99.90
77829;DHT22;67019;51.034;3.728;2023-07-31T09:12:14;18.20;99.90
77829;DHT22;67019;51.034;3.728;2023-07-31T09:14:44;18.10;99.90
77829;DHT22;67019;51.034;3.728;2023-07-31T09:17:12;18.10;99.90
77829;DHT22;67019;51.034;3.728;2023-07-31T09:19:40;18.20;99.90
77829;DHT22;67019;51.034;3.728;2023-07-31T09:22:08;18.10;99.90
77829;DHT22;67019;51.034;3.728;2023-07-31T09:24:36;18.30;99.90
77829;DHT22;67019;51.034;3.728;2023-07-31T09:27:06;18.20;99.90
77829;DHT22;67019;51.034;3.728;2023-07-31T09:29:34;18.30;99.90
77829;DHT22;67019;51.034;3.728;2023-07-31T09:32:01;18.20;99.90
77829;DHT22;67019;51.034;3.728;2023-07-31T09:34:36;18.20;99.90
77829;DHT22;67019;51.034;3.728;2023-07-31T09:37:01;18.20;99.90
77829;DHT22;67019;51.034;3.728;2023-07-31T09:39:29;18.30;99.90
77829;DHT22;67019;51.034;3.728;2023-07-31T09:41:57;18.50;99.90
77829;DHT22;67019;51.034;3.728;2023-07-31T09:44:41;18.30;99.90
77829;DHT22;67019;51.034;3.728;2023-07-31T09:47:22;18.20;99.90
77829;DHT22;67019;51.034;3.728;2023-07-31T09:49:55;18.20;99.90
77829;DHT22;67019;51.034;3.728;2023-07-31T09:52:22;18.30;99.90
77829;DHT22;67019;51.034;3.728;2023-07-31T09:54:51;18.40;99.90
77829;DHT22;67019;51.034;3.728;2023-07-31T09:57:21;18.50;99.90
77829;DHT22;67019;51.034;3.728;2023-07-31T09:59:51;18.60;99.90
77829;DHT22;67019;51.034;3.728;2023-07-31T10:02:22;18.70;99.90
77829;DHT22;67019;51.034;3.728;2023-07-31T10:04:50;18.70;99.90
77829;DHT22;67019;51.034;3.728;2023-07-31T10:07:19;18.80;99.90
77829;DHT22;67019;51.034;3.728;2023-07-31T10:09:47;19.00;99.90
77829;DHT22;67019;51.034;3.728;2023-07-31T10:12:18;19.00;99.90
77829;DHT22;67019;51.034;3.728;2023-07-31T10:14:46;18.90;99.90
77829;DHT22;67019;51.034;3.728;2023-07-31T10:17:14;18.80;99.90
77829;DHT22;67019;51.034;3.728;2023-07-31T10:19:42;19.10;99.90
77829;DHT22;67019;51.034;3.728;2023-07-31T10:22:11;18.80;99.90
77829;DHT22;67019;51.034;3.728;2023-07-31T10:24:49;18.50;99.90
77829;DHT22;67019;51.034;3.728;2023-07-31T10:27:13;18.10;99.90
77829;DHT22;67019;51.034;3.728;2023-07-31T10:29:43;18.10;99.90
77829;DHT22;67019;51.034;3.728;2023-07-31T10:32:13;18.10;99.90
77829;DHT22;67019;51.034;3.728;2023-07-31T10:34:42;18.10;99.90
77829;DHT22;67019;51.034;3.728;2023-07-31T10:37:30;18.20;99.90
77829;DHT22;67019;51.034;3.728;2023-07-31T10:40:02;18.20;99.90
77829;DHT22;67019;51.034;3.728;2023-07-31T10:42:48;18.30;99.90
77829;DHT22;67019;51.034;3.728;2023-07-31T10:45:36;18.40;99.90
77829;DHT22;67019;51.034;3.728;2023-07-31T10:48:14;18.40;99.90
77829;DHT22;67019;51.034;3.728;2023-07-31T10:50:47;18.70;99.90
77829;DHT22;67019;51.034;3.728;2023-07-31T10:53:29;18.70;99.90
77829;DHT22;67019;51.034;3.728;2023-07-31T10:56:01;18.80;99.90
77829;DHT22;67019;51.034;3.728;2023-07-31T10:58:29;18.80;99.90
77829;DHT22;67019;51.034;3.728;2023-07-31T11:01:04;18.90;99.90
77829;DHT22;67019;51.034;3.728;2023-07-31T11:06:13;19.10;99.90
77829;DHT22;67019;51.034;3.728;2023-07-31T11:08:45;19.20;99.90
77829;DHT22;67019;51.034;3.728;2023-07-31T11:11:14;19.30;99.90
77829;DHT22;67019;51.034;3.728;2023-07-31T11:14:00;19.40;99.90
77829;DHT22;67019;51.034;3.728;2023-07-31T11:16:28;19.60;99.90
77829;DHT22;67019;51.034;3.728;2023-07-31T11:18:56;19.70;99.90
77829;DHT22;67019;51.034;3.728;2023-07-31T11:21:24;19.50;99.90
77829;DHT22;67019;51.034;3.728;2023-07-31T11:23:55;19.40;99.90
77829;DHT22;67019;51.034;3.728;2023-07-31T11:26:23;19.40;99.90
77829;DHT22;67019;51.034;3.728;2023-07-31T11:28:51;19.50;99.90
77829;DHT22;67019;51.034;3.728;2023-07-31T11:31:19;19.40;99.90
77829;DHT22;67019;51.034;3.728;2023-07-31T11:33:47;19.60;99.90
77829;DHT22;67019;51.034;3.728;2023-07-31T11:36:21;19.60;99.90
77829;DHT22;67019;51.034;3.728;2023-07-31T11:38:45;19.70;99.90
77829;DHT22;67019;51.034;3.728;2023-07-31T11:41:15;19.90;99.90
77829;DHT22;67019;51.034;3.728;2023-07-31T11:43:43;19.70;99.90
77829;DHT22;67019;51.034;3.728;2023-07-31T11:46:12;19.80;99.90
77829;DHT22;67019;51.034;3.728;2023-07-31T11:48:43;20.00;99.90
77829;DHT22;67019;51.034;3.728;2023-07-31T11:51:12;19.80;99.90
77829;DHT22;67019;51.034;3.728;2023-07-31T11:53:46;19.90;99.90
77829;DHT22;67019;51.034;3.728;2023-07-31T11:56:17;20.00;99.90
77829;DHT22;67019;51.034;3.728;2023-07-31T11:58:55;19.90;99.90
77829;DHT22;67019;51.034;3.728;2023-07-31T12:01:20;20.00;99.90
77829;DHT22;67019;51.034;3.728;2023-07-31T12:03:50;19.80;99.90
77829;DHT22;67019;51.034;3.728;2023-07-31T12:06:18;19.70;99.90
77829;DHT22;67019;51.034;3.728;2023-07-31T12:08:48;19.80;99.90
77829;DHT22;67019;51.034;3.728;2023-07-31T12:11:15;19.90;99.90
77829;DHT22;67019;51.034;3.728;2023-07-31T12:13:44;19.80;99.90
77829;DHT22;67019;51.034;3.728;2023-07-31T12:16:12;19.70;99.90
77829;DHT22;67019;51.034;3.728;2023-07-31T12:18:39;19.80;99.90
77829;DHT22;67019;51.034;3.728;2023-07-31T12:21:08;19.50;99.90
77829;DHT22;67019;51.034;3.728;2023-07-31T12:23:38;19.60;99.90
77829;DHT22;67019;51.034;3.728;2023-07-31T12:26:13;19.40;99.90
77829;DHT22;67019;51.034;3.728;2023-07-31T12:28:46;19.40;99.90
77829;DHT22;67019;51.034;3.728;2023-07-31T12:31:19;19.00;99.90
77829;DHT22;67019;51.034;3.728;2023-07-31T12:33:49;18.70;99.90
77829;DHT22;67019;51.034;3.728;2023-07-31T12:36:24;18.50;99.90
77829;DHT22;67019;51.034;3.728;2023-07-31T12:38:52;18.40;99.90
77829;DHT22;67019;51.034;3.728;2023-07-31T12:41:23;18.40;99.90
77829;DHT22;67019;51.034;3.728;2023-07-31T12:43:52;18.20;99.90
77829;DHT22;67019;51.034;3.728;2023-07-31T12:46:20;18.00;99.90
77829;DHT22;67019;51.034;3.728;2023-07-31T12:48:47;17.90;99.90
77829;DHT22;67019;51.034;3.728;2023-07-31T12:51:15;17.90;99.90
77829;DHT22;67019;51.034;3.728;2023-07-31T12:53:44;17.90;99.90
77829;DHT22;67019;51.034;3.728;2023-07-31T12:56:12;17.70;99.90
77829;DHT22;67019;51.034;3.728;2023-07-31T12:58:40;17.70;99.90
77829;DHT22;67019;51.034;3.728;2023-07-31T13:01:10;17.70;99.90
77829;DHT22;67019;51.034;3.728;2023-07-31T13:03:38;17.70;99.90
77829;DHT22;67019;51.034;3.728;2023-07-31T13:06:05;17.90;99.90
77829;DHT22;67019;51.034;3.728;2023-07-31T13:08:35;17.80;99.90
77829;DHT22;67019;51.034;3.728;2023-07-31T13:11:02;17.70;99.90
77829;DHT22;67019;51.034;3.728;2023-07-31T13:13:30;17.70;99.90
77829;DHT22;67019;51.034;3.728;2023-07-31T13:15:58;17.70;99.90
77829;DHT22;67019;51.034;3.728;2023-07-31T13:18:26;17.60;99.90
77829;DHT22;67019;51.034;3.728;2023-07-31T13:20:54;17.70;99.90
77829;DHT22;67019;51.034;3.728;2023-07-31T13:23:21;17.80;99.90
77829;DHT22;67019;51.034;3.728;2023-07-31T13:25:49;17.60;99.90
77829;DHT22;67019;51.034;3.728;2023-07-31T13:28:18;17.50;99.90
77829;DHT22;67019;51.034;3.728;2023-07-31T13:30:46;17.50;99.90
77829;DHT22;67019;51.034;3.728;2023-07-31T13:33:13;17.50;99.90
77829;DHT22;67019;51.034;3.728;2023-07-31T13:35:41;17.50;99.90
77829;DHT22;67019;51.034;3.728;2023-07-31T13:38:08;17.50;99.90
77829;DHT22;67019;51.034;3.728;2023-07-31T13:40:36;17.40;99.90
77829;DHT22;67019;51.034;3.728;2023-07-31T13:43:04;17.50;99.90
77829;DHT22;67019;51.034;3.728;2023-07-31T13:45:33;17.50;99.90
77829;DHT22;67019;51.034;3.728;2023-07-31T13:48:01;17.40;99.90
77829;DHT22;67019;51.034;3.728;2023-07-31T13:50:30;17.30;99.90
77829;DHT22;67019;51.034;3.728;2023-07-31T13:52:58;17.40;99.90
77829;DHT22;67019;51.034;3.728;2023-07-31T13:55:34;17.40;99.90
77829;DHT22;67019;51.034;3.728;2023-07-31T13:58:43;17.40;99.90
77829;DHT22;67019;51.034;3.728;2023-07-31T14:12:03;17.40;99.90
77829;DHT22;67019;51.034;3.728;2023-07-31T14:18:05;17.50;99.90
77829;DHT22;67019;51.034;3.728;2023-07-31T14:38:11;17.40;99.90
77829;DHT22;67019;51.034;3.728;2023-07-31T14:57:01;17.60;99.90
77829;DHT22;67019;51.034;3.728;2023-07-31T14:59:28;17.50;99.90
77829;DHT22;67019;51.034;3.728;2023-07-31T15:01:56;17.50;99.90
77829;DHT22;67019;51.034;3.728;2023-07-31T15:04:24;17.50;99.90
77829;DHT22;67019;51.034;3.728;2023-07-31T15:06:52;17.40;99.90
77829;DHT22;67019;51.034;3.728;2023-07-31T15:09:21;17.50;99.90
77829;DHT22;67019;51.034;3.728;2023-07-31T15:11:51;17.40;99.90
77829;DHT22;67019;51.034;3.728;2023-07-31T15:14:19;17.40;99.90
77829;DHT22;67019;51.034;3.728;2023-07-31T15:16:47;17.50;99.90
77829;DHT22;67019;51.034;3.728;2023-07-31T15:19:16;17.50;99.90
77829;DHT22;67019;51.034;3.728;2023-07-31T15:21:44;17.50;99.90
77829;DHT22;67019;51.034;3.728;2023-07-31T15:24:12;17.50;99.90
77829;DHT22;67019;51.034;3.728;2023-07-31T15:26:41;17.50;99.90
77829;DHT22;67019;51.034;3.728;2023-07-31T15:29:08;17.50;99.90
77829;DHT22;67019;51.034;3.728;2023-07-31T15:31:42;17.50;99.90
77829;DHT22;67019;51.034;3.728;2023-07-31T15:34:10;17.50;99.90
77829;DHT22;67019;51.034;3.728;2023-07-31T15:36:39;17.40;99.90
77829;DHT22;67019;51.034;3.728;2023-07-31T15:39:11;17.50;99.90
77829;DHT22;67019;51.034;3.728;2023-07-31T15:41:40;17.50;99.90
77829;DHT22;67019;51.034;3.728;2023-07-31T15:44:08;17.50;99.90
77829;DHT22;67019;51.034;3.728;2023-07-31T15:46:36;17.50;99.90
77829;DHT22;67019;51.034;3.728;2023-07-31T15:49:09;17.60;99.90
77829;DHT22;67019;51.034;3.728;2023-07-31T15:51:36;17.60;99.90
77829;DHT22;67019;51.034;3.728;2023-07-31T15:54:04;17.60;99.90
77829;DHT22;67019;51.034;3.728;2023-07-31T15:56:32;17.60;99.90
77829;DHT22;67019;51.034;3.728;2023-07-31T15:59:00;17.50;99.90
77829;DHT22;67019;51.034;3.728;2023-07-31T16:01:28;17.50;99.90
77829;DHT22;67019;51.034;3.728;2023-07-31T16:03:57;17.50;99.90
77829;DHT22;67019;51.034;3.728;2023-07-31T16:06:24;17.50;99.90
77829;DHT22;67019;51.034;3.728;2023-07-31T16:08:52;17.50;99.90
77829;DHT22;67019;51.034;3.728;2023-07-31T16:11:21;17.50;99.90
77829;DHT22;67019;51.034;3.728;2023-07-31T16:13:48;17.40;99.90
77829;DHT22;67019;51.034;3.728;2023-07-31T16:16:16;17.40;99.90
77829;DHT22;67019;51.034;3.728;2023-07-31T16:18:45;17.40;99.90
77829;DHT22;67019;51.034;3.728;2023-07-31T16:21:13;17.50;99.90
77829;DHT22;67019;51.034;3.728;2023-07-31T16:23:42;17.50;99.90
77829;DHT22;67019;51.034;3.728;2023-07-31T16:26:15;17.40;99.90
77829;DHT22;67019;51.034;3.728;2023-07-31T16:28:44;17.50;99.90
77829;DHT22;67019;51.034;3.728;2023-07-31T16:31:11;17.50;99.90
77829;DHT22;67019;51.034;3.728;2023-07-31T16:33:40;17.40;99.90
77829;DHT22;67019;51.034;3.728;2023-07-31T16:36:13;17.50;99.90